Altama, Georgia
Current Conditions -  °F | °C
As of 1:15 PM on Thursday 30 Oct 2014 (Local Time) from KBQK Reporting Station
Scattered Clouds Scattered Clouds  
Wind Chill: 79°   Ceiling: Unl
Heat Index: 80°   Visibility: 10mi
Dew Point: 61°   Wind: 6mph
Humidity: 54%   Direction: 310°NW
Pressure: 29.96"   Gusts: NA
Location:  31.1773°N, 81.4991°W
Report Text: KBQK 301715Z AUTO 31005KT 10SM SCT029 SCT060 SCT080 26/16 A2996 RMK AO1
Loading
Personal Weather Stations






























Interactive Weather Map
Tropical Storm Tracking
New forecast layout! Learn more

10-Day Weather Forecast

Advertisements
Track Severe Weather on mobile